createdAt,value
2023-02-24T00:02:15.309Z,99254.13
2023-02-24T00:04:45.652Z,99257.56
2023-02-24T00:07:14.215Z,99253.38
2023-02-24T00:09:44.715Z,99247.50
2023-02-24T00:12:15.907Z,99248.47
2023-02-24T00:14:45.953Z,99243.44
2023-02-24T00:17:15.538Z,99238.34
2023-02-24T00:19:46.618Z,99235.00
2023-02-24T00:22:14.986Z,99229.81
2023-02-24T00:24:43.597Z,99229.81
2023-02-24T00:27:12.481Z,99227.22
2023-02-24T00:29:42.346Z,99229.03
2023-02-24T00:32:13.513Z,99217.03
2023-02-24T00:34:43.462Z,99205.91
2023-02-24T00:37:15.679Z,99207.63
2023-02-24T00:39:46.732Z,99199.97
2023-02-24T00:42:15.911Z,99204.22
2023-02-24T00:44:46.818Z,99205.03
2023-02-24T00:47:17.634Z,99205.16
2023-02-24T00:49:46.352Z,99203.47
2023-02-24T00:52:18.895Z,99196.56
2023-02-24T00:54:48.374Z,99191.38
2023-02-24T00:57:18.556Z,99192.31
2023-02-24T00:59:50.032Z,99189.78
2023-02-24T01:02:18.713Z,99188.22
2023-02-24T01:04:47.186Z,99186.56
2023-02-24T01:07:16.888Z,99186.63
2023-02-24T01:09:45.642Z,99177.06
2023-02-24T01:12:34.140Z,99177.88
2023-02-24T01:15:05.180Z,99174.28
2023-02-24T01:17:36.369Z,99166.28
2023-02-24T01:20:16.567Z,99165.22
2023-02-24T01:22:48.975Z,99157.25
2023-02-24T01:25:20.292Z,99154.53
2023-02-24T01:27:50.472Z,99156.09
2023-02-24T01:30:19.108Z,99154.28
2023-02-24T01:32:48.634Z,99150.78
2023-02-24T01:35:17.984Z,99149.88
2023-02-24T01:37:48.463Z,99141.13
2023-02-24T01:40:21.672Z,99141.03
2023-02-24T01:42:51.006Z,99139.41
2023-02-24T01:45:26.079Z,99133.09
2023-02-24T01:47:58.458Z,99135.47
2023-02-24T01:50:27.946Z,99130.13
2023-02-24T01:53:02.365Z,99135.22
2023-02-24T01:55:34.604Z,99131.63
2023-02-24T01:58:09.721Z,99121.91
2023-02-24T02:00:45.486Z,99112.31
2023-02-24T02:03:24.318Z,99125.06
2023-02-24T02:05:55.799Z,99116.34
2023-02-24T02:08:26.180Z,99113.66
2023-02-24T02:10:59.447Z,99112.63
2023-02-24T02:13:29.924Z,99106.34
2023-02-24T02:16:09.824Z,99110.47
2023-02-24T02:18:48.870Z,99100.72
2023-02-24T02:21:49.107Z,99096.19
2023-02-24T02:24:38.626Z,99102.19
2023-02-24T02:27:29.571Z,99082.28
2023-02-24T02:30:25.056Z,99092.69
2023-02-24T02:33:21.789Z,99089.31
2023-02-24T02:36:01.521Z,99084.00
2023-02-24T02:38:39.299Z,99089.19
2023-02-24T02:41:18.717Z,99073.50
2023-02-24T02:43:52.713Z,99076.88
2023-02-24T02:46:35.018Z,99070.69
2023-02-24T02:49:11.285Z,99068.03
2023-02-24T02:51:46.960Z,99069.72
2023-02-24T02:54:21.903Z,99062.75
2023-02-24T02:56:56.634Z,99064.38
2023-02-24T02:59:30.546Z,99065.19
2023-02-24T03:02:11.849Z,99057.31
2023-02-24T03:04:44.260Z,99054.53
2023-02-24T03:07:17.982Z,99061.25
2023-02-24T03:09:51.407Z,99051.53
2023-02-24T03:12:24.056Z,99044.41
2023-02-24T03:14:59.209Z,99047.66
2023-02-24T03:17:31.833Z,99047.41
2023-02-24T03:20:15.185Z,99041.03
2023-02-24T03:22:52.112Z,99045.94
2023-02-24T03:25:25.794Z,99039.50
2023-02-24T03:28:01.834Z,99030.78
2023-02-24T03:30:41.284Z,99033.19
2023-02-24T03:33:17.870Z,99029.47
2023-02-24T03:35:47.159Z,99027.72
2023-02-24T03:38:17.037Z,99029.47
2023-02-24T03:40:45.801Z,99021.66
2023-02-24T03:43:28.011Z,99020.69
2023-02-24T03:45:58.685Z,99015.47
2023-02-24T03:48:28.480Z,99014.66
2023-02-24T03:51:00.704Z,99006.91
2023-02-24T03:53:57.718Z,99005.22
2023-02-24T03:56:40.501Z,99005.06
2023-02-24T03:59:23.815Z,99001.13
2023-02-24T04:01:59.719Z,99005.22
2023-02-24T04:04:42.030Z,98992.09
2023-02-24T04:07:27.095Z,98999.75
2023-02-24T04:10:09.452Z,98987.66
2023-02-24T04:12:47.804Z,98977.22
2023-02-24T04:15:22.152Z,98975.59
2023-02-24T04:17:54.992Z,98973.88
2023-02-24T04:20:29.626Z,98968.50
2023-02-24T04:23:04.638Z,98969.34
2023-02-24T04:25:35.079Z,98959.78
2023-02-24T04:28:08.186Z,98955.47
2023-02-24T04:30:42.275Z,98947.66
2023-02-24T04:33:13.976Z,98947.81
2023-02-24T04:35:45.933Z,98941.81
2023-02-24T04:38:14.347Z,98938.47
2023-02-24T04:40:44.253Z,98930.53
2023-02-24T04:43:13.197Z,98937.41
2023-02-24T04:45:41.612Z,98928.53
2023-02-24T04:48:13.116Z,98929.31
2023-02-24T04:50:43.419Z,98920.63
2023-02-24T04:53:14.768Z,98924.78
2023-02-24T04:55:48.986Z,98916.56
2023-02-24T04:58:20.511Z,98921.41
2023-02-24T05:00:52.901Z,98916.00
2023-02-24T05:03:28.700Z,98908.78
2023-02-24T05:06:00.355Z,98914.56
2023-02-24T05:08:30.759Z,98912.25
2023-02-24T05:11:03.992Z,98904.19
2023-02-24T05:13:33.838Z,98899.78
2023-02-24T05:16:08.279Z,98903.38
2023-02-24T05:18:38.156Z,98893.81
2023-02-24T05:21:26.417Z,98893.81
2023-02-24T05:23:55.985Z,98892.13
2023-02-24T05:26:27.011Z,98886.06
2023-02-24T05:28:59.798Z,98887.91
2023-02-24T05:31:32.001Z,98888.06
2023-02-24T05:34:03.676Z,98885.44
2023-02-24T05:36:34.667Z,98881.91
2023-02-24T05:39:07.525Z,98881.78
2023-02-24T05:41:41.821Z,98885.22
2023-02-24T05:44:13.278Z,98885.22
2023-02-24T05:46:42.932Z,98881.72
2023-02-24T05:49:15.296Z,98880.78
2023-02-24T05:51:54.754Z,98881.59
2023-02-24T05:54:26.138Z,98880.72
2023-02-24T05:56:57.094Z,98881.59
2023-02-24T05:59:25.819Z,98876.50
2023-02-24T06:01:54.383Z,98870.44
2023-02-24T06:04:39.338Z,98869.56
2023-02-24T06:07:13.867Z,98870.44
2023-02-24T06:09:45.206Z,98864.47
2023-02-24T06:12:15.880Z,98868.75
2023-02-24T06:14:45.661Z,98858.31
2023-02-24T06:17:15.236Z,98870.44
2023-02-24T06:19:43.941Z,98869.50
2023-02-24T06:22:15.381Z,98865.22
2023-02-24T06:24:45.410Z,98866.22
2023-02-24T06:27:18.970Z,98873.19
2023-02-24T06:29:50.072Z,98862.94
2023-02-24T06:32:19.038Z,98863.81
2023-02-24T06:34:47.940Z,98860.38
2023-02-24T06:37:18.466Z,98861.22
2023-02-24T06:39:48.167Z,98857.84
2023-02-24T06:42:17.979Z,98859.53
2023-02-24T06:44:46.394Z,98861.31
2023-02-24T06:47:16.392Z,98860.53
2023-02-24T06:49:44.967Z,98852.03
2023-02-24T06:52:18.683Z,98855.50
2023-02-24T06:54:49.854Z,98850.34
2023-02-24T06:57:20.806Z,98852.88
2023-02-24T06:59:49.272Z,98848.50
2023-02-24T07:02:18.711Z,98852.88
2023-02-24T07:04:47.780Z,98843.28
2023-02-24T07:07:17.564Z,98846.75
2023-02-24T07:09:46.072Z,98844.97
2023-02-24T07:12:21.125Z,98846.69
2023-02-24T07:14:51.259Z,98842.28
2023-02-24T07:17:20.119Z,98843.91
2023-02-24T07:19:48.409Z,98838.63
2023-02-24T07:22:17.651Z,98844.69
2023-02-24T07:24:46.793Z,98841.16
2023-02-24T07:27:23.315Z,98837.63
2023-02-24T07:29:53.992Z,98836.69
2023-02-24T07:32:23.835Z,98826.19
2023-02-24T07:34:52.647Z,98830.41
2023-02-24T07:37:23.083Z,98827.75
2023-02-24T07:39:51.965Z,98821.53
2023-02-24T07:42:20.345Z,98826.59
2023-02-24T07:44:57.375Z,98824.00
2023-02-24T07:47:26.622Z,98817.72
2023-02-24T07:49:55.603Z,98821.06
2023-02-24T07:52:24.090Z,98814.94
2023-02-24T07:54:56.605Z,98812.25
2023-02-24T07:57:25.408Z,98812.03
2023-02-24T07:59:54.271Z,98806.63
2023-02-24T08:02:24.884Z,98806.63
2023-02-24T08:04:54.369Z,98801.28
2023-02-24T08:07:25.764Z,98802.13
2023-02-24T08:12:48.736Z,98791.59
2023-02-24T08:15:24.306Z,98798.34
2023-02-24T08:17:56.761Z,98792.06
2023-02-24T08:20:27.512Z,98788.38
2023-02-24T08:22:57.022Z,98794.34
2023-02-24T08:25:35.794Z,98787.22
2023-02-24T08:28:11.783Z,98785.44
2023-02-24T08:30:45.729Z,98781.91
2023-02-24T08:33:20.177Z,98778.31
2023-02-24T08:35:53.100Z,98778.22
2023-02-24T08:38:26.658Z,98770.31
2023-02-24T08:40:58.698Z,98772.84
2023-02-24T08:43:33.914Z,98764.78
2023-02-24T08:46:13.305Z,98764.53
2023-02-24T08:48:45.052Z,98762.66
2023-02-24T08:51:18.109Z,98758.38
2023-02-24T08:53:47.336Z,98751.47
2023-02-24T08:56:24.568Z,98753.34
2023-02-24T08:58:58.313Z,98744.66
2023-02-24T09:01:34.708Z,98745.53
2023-02-24T09:04:06.859Z,98743.66
2023-02-24T09:10:17.961Z,98743.66
2023-02-24T09:12:49.190Z,98746.34
2023-02-24T09:15:17.631Z,98744.66
2023-02-24T09:18:01.448Z,98736.91
2023-02-24T09:20:49.813Z,98730.09
2023-02-24T09:23:21.189Z,98730.09
2023-02-24T09:28:24.782Z,98724.22
2023-02-24T09:30:55.407Z,98721.41
2023-02-24T09:33:26.403Z,98722.94
2023-02-24T09:36:09.846Z,98720.94
2023-02-24T09:39:02.528Z,98708.50
2023-02-24T09:41:54.051Z,98703.44
2023-02-24T09:44:34.599Z,98706.13
2023-02-24T09:47:19.096Z,98699.38
2023-02-24T09:49:56.550Z,98701.41
2023-02-24T09:52:40.069Z,98702.06
2023-02-24T09:55:26.210Z,98698.16
2023-02-24T09:58:18.613Z,98701.16
2023-02-24T10:00:55.894Z,98694.81
2023-02-24T10:03:42.762Z,98696.31
2023-02-24T10:06:20.977Z,98695.28
2023-02-24T10:08:58.605Z,98691.56
2023-02-24T10:11:34.076Z,98688.03
2023-02-24T10:14:06.582Z,98687.84
2023-02-24T10:16:46.436Z,98685.25
2023-02-24T10:19:26.390Z,98679.09
2023-02-24T10:22:03.215Z,98672.06
2023-02-24T10:24:38.660Z,98667.69
2023-02-24T10:27:17.164Z,98670.13
2023-02-24T10:30:01.293Z,98662.28
2023-02-24T10:32:41.484Z,98656.38
2023-02-24T10:35:16.854Z,98648.75
2023-02-24T10:37:46.162Z,98653.22
2023-02-24T10:40:24.957Z,98653.28
2023-02-24T10:43:04.924Z,98648.25
2023-02-24T10:45:42.399Z,98639.66
2023-02-24T10:48:42.077Z,98622.31
2023-02-24T10:51:20.413Z,98624.75
2023-02-24T10:54:10.319Z,98621.94
2023-02-24T10:56:44.836Z,98613.19
2023-02-24T10:59:44.630Z,98614.03
2023-02-24T11:02:30.103Z,98608.72
2023-02-24T11:05:25.173Z,98599.38
2023-02-24T11:08:08.228Z,98611.50
2023-02-24T11:10:53.472Z,98607.50
2023-02-24T11:13:39.525Z,98601.59
2023-02-24T11:16:28.055Z,98593.16
2023-02-24T11:18:57.802Z,98592.59
2023-02-24T11:21:29.135Z,98586.53
2023-02-24T11:24:03.067Z,98588.47
2023-02-24T11:26:42.402Z,98587.75
2023-02-24T11:29:23.797Z,98579.06
2023-02-24T11:32:12.161Z,98577.38
2023-02-24T11:34:49.808Z,98574.03
2023-02-24T11:37:34.719Z,98577.47
2023-02-24T11:40:09.533Z,98572.34
2023-02-24T11:42:42.146Z,98562.91
2023-02-24T11:45:22.915Z,98556.84
2023-02-24T11:47:56.106Z,98561.22
2023-02-24T11:50:34.131Z,98555.84
2023-02-24T11:53:12.468Z,98562.56
2023-02-24T11:55:45.062Z,98565.09
2023-02-24T11:58:18.799Z,98558.63
2023-02-24T12:00:56.803Z,98553.91
2023-02-24T12:03:31.957Z,98551.69
2023-02-24T12:06:11.236Z,98544.97
2023-02-24T12:08:46.354Z,98541.00
2023-02-24T12:11:22.008Z,98533.50
2023-02-24T12:13:56.114Z,98530.88
2023-02-24T12:16:33.444Z,98531.66
2023-02-24T12:19:07.840Z,98528.09
2023-02-24T12:21:42.024Z,98521.00
2023-02-24T12:24:14.777Z,98525.00
2023-02-24T12:26:48.549Z,98515.31
2023-02-24T12:29:43.554Z,98505.69
2023-02-24T12:32:22.732Z,98504.72
2023-02-24T12:35:03.580Z,98505.41
2023-02-24T12:37:58.826Z,98503.53
2023-02-24T12:40:45.916Z,98494.09
2023-02-24T12:43:27.246Z,98496.88
2023-02-24T12:46:02.615Z,98498.00
2023-02-24T12:48:56.188Z,98491.50
2023-02-24T12:51:30.461Z,98494.59
2023-02-24T12:54:04.873Z,98482.75
2023-02-24T12:56:43.087Z,98482.19
2023-02-24T12:59:16.889Z,98479.03
2023-02-24T13:01:55.383Z,98485.28
2023-02-24T13:04:36.197Z,98476.13
2023-02-24T13:07:23.719Z,98472.84
2023-02-24T13:10:06.334Z,98473.88
2023-02-24T13:12:46.492Z,98470.63
2023-02-24T13:15:22.634Z,98467.31
2023-02-24T13:17:56.400Z,98462.97
2023-02-24T13:20:31.153Z,98459.63
2023-02-24T13:23:01.177Z,98463.13
2023-02-24T13:25:34.632Z,98457.19
2023-02-24T13:28:06.924Z,98455.50
2023-02-24T13:30:40.134Z,98452.13
2023-02-24T13:33:23.646Z,98443.66
2023-02-24T13:35:56.040Z,98448.03
2023-02-24T13:38:37.540Z,98444.69
2023-02-24T13:41:21.744Z,98449.16
2023-02-24T13:44:00.882Z,98444.97
2023-02-24T13:46:32.369Z,98446.91
2023-02-24T13:49:27.827Z,98451.41
2023-02-24T13:52:06.813Z,98448.03
2023-02-24T13:55:04.394Z,98436.66
2023-02-24T13:57:56.394Z,98428.94
2023-02-24T14:00:39.917Z,98423.72
2023-02-24T14:03:12.811Z,98434.97
2023-02-24T14:05:44.417Z,98433.22
2023-02-24T14:08:22.755Z,98430.69
2023-02-24T14:10:56.404Z,98426.22
2023-02-24T14:13:28.079Z,98430.50
2023-02-24T14:16:00.209Z,98419.78
2023-02-24T14:18:30.682Z,98423.97
2023-02-24T14:20:59.689Z,98430.91
2023-02-24T14:23:30.280Z,98420.44
2023-02-24T14:26:03.702Z,98423.31
2023-02-24T14:28:34.719Z,98417.47
2023-02-24T14:31:10.930Z,98410.91
2023-02-24T14:33:41.658Z,98408.22
2023-02-24T14:36:19.890Z,98414.47
2023-02-24T14:39:01.806Z,98418.09
2023-02-24T14:41:30.360Z,98400.84
2023-02-24T14:43:59.272Z,98392.31
2023-02-24T14:46:29.004Z,98386.22
2023-02-24T14:48:58.553Z,98392.47
2023-02-24T14:51:33.042Z,98388.28
2023-02-24T14:54:05.598Z,98383.22
2023-02-24T14:56:36.844Z,98374.75
2023-02-24T14:59:09.233Z,98376.53
2023-02-24T15:01:41.503Z,98376.72
2023-02-24T15:04:16.264Z,98370.00
2023-02-24T15:06:45.659Z,98371.03
2023-02-24T15:09:17.586Z,98381.56
2023-02-24T15:11:46.320Z,98388.72
2023-02-24T15:14:22.966Z,98388.81
2023-02-24T15:16:56.769Z,98394.97
2023-02-24T15:19:28.593Z,98389.06
2023-02-24T15:21:56.931Z,98374.38
2023-02-24T15:24:29.472Z,98381.38
2023-02-24T15:27:03.011Z,98374.53
2023-02-24T15:29:35.111Z,98366.91
2023-02-24T15:32:12.955Z,98369.69
2023-02-24T15:34:48.627Z,98360.56
2023-02-24T15:37:23.633Z,98352.19
2023-02-24T15:39:58.599Z,98350.69
2023-02-24T15:42:29.306Z,98349.19
2023-02-24T15:45:01.052Z,98346.75
2023-02-24T15:47:44.229Z,98347.69
2023-02-24T15:50:14.386Z,98344.31
2023-02-24T15:52:43.049Z,98336.47
2023-02-24T15:55:16.245Z,98327.19
2023-02-24T15:57:45.535Z,98320.28
2023-02-24T16:00:18.649Z,98330.91
2023-02-24T16:02:51.269Z,98338.97
2023-02-24T16:05:19.744Z,98324.34
2023-02-24T16:07:49.130Z,98323.69
2023-02-24T16:10:24.259Z,98324.88
2023-02-24T16:12:56.156Z,98327.56
2023-02-24T16:15:28.491Z,98339.22
2023-02-24T16:17:59.522Z,98340.31
2023-02-24T16:20:31.709Z,98338.72
2023-02-24T16:23:02.377Z,98330.81
2023-02-24T16:25:35.848Z,98336.13
2023-02-24T16:28:04.897Z,98335.34
2023-02-24T16:30:35.604Z,98344.19
2023-02-24T16:33:05.682Z,98339.91
2023-02-24T16:35:34.174Z,98333.75
2023-02-24T16:38:02.833Z,98333.03
2023-02-24T16:40:37.733Z,98322.03
2023-02-24T16:43:06.531Z,98321.19
2023-02-24T16:45:36.733Z,98326.81
2023-02-24T16:48:10.621Z,98322.53
2023-02-24T16:50:41.523Z,98323.63
2023-02-24T16:53:09.938Z,98320.97
2023-02-24T16:55:38.874Z,98319.38
2023-02-24T16:58:07.437Z,98313.38
2023-02-24T17:00:37.704Z,98298.78
2023-02-24T17:03:15.203Z,98294.59
2023-02-24T17:05:44.389Z,98304.06
2023-02-24T17:08:14.275Z,98308.63
2023-02-24T17:10:44.058Z,98305.50
2023-02-24T17:13:13.323Z,98310.81
2023-02-24T17:15:42.133Z,98300.50
2023-02-24T17:18:12.560Z,98298.88
2023-02-24T17:20:42.416Z,98301.59
2023-02-24T17:23:12.641Z,98291.34
2023-02-24T17:25:41.042Z,98288.00
2023-02-24T17:28:09.532Z,98288.09
2023-02-24T17:30:39.628Z,98287.31
2023-02-24T17:33:08.209Z,98294.47
2023-02-24T17:35:38.021Z,98278.19
2023-02-24T17:38:10.778Z,98282.69
2023-02-24T17:40:39.102Z,98278.59
2023-02-24T17:43:07.574Z,98273.47
2023-02-24T17:45:36.210Z,98270.03
2023-02-24T17:48:05.369Z,98267.63
2023-02-24T17:50:33.865Z,98264.41
2023-02-24T17:53:03.744Z,98263.66
2023-02-24T17:55:32.043Z,98254.47
2023-02-24T17:58:01.008Z,98256.69
2023-02-24T18:00:29.747Z,98245.84
2023-02-24T18:02:58.471Z,98234.09
2023-02-24T18:05:27.055Z,98230.06
2023-02-24T18:07:58.480Z,98220.09
2023-02-24T18:10:28.595Z,98222.00
2023-02-24T18:12:56.947Z,98223.09
2023-02-24T18:15:25.270Z,98236.50
2023-02-24T18:17:53.777Z,98233.31
2023-02-24T18:20:22.567Z,98240.34
2023-02-24T18:22:50.956Z,98237.81
2023-02-24T18:25:19.596Z,98231.78
2023-02-24T18:27:49.342Z,98229.38
2023-02-24T18:30:18.762Z,98218.03
2023-02-24T18:32:50.025Z,98214.50
2023-02-24T18:35:21.943Z,98210.25
2023-02-24T18:37:56.434Z,98208.50
2023-02-24T18:40:25.290Z,98200.59
2023-02-24T18:42:57.023Z,98206.72
2023-02-24T18:45:25.747Z,98203.47
2023-02-24T18:47:54.579Z,98197.41
2023-02-24T18:50:25.249Z,98195.75
2023-02-24T18:52:53.980Z,98189.63
2023-02-24T18:55:23.295Z,98191.38
2023-02-24T18:57:51.831Z,98193.06
2023-02-24T19:00:22.507Z,98187.94
2023-02-24T19:02:50.894Z,98190.38
2023-02-24T19:05:20.629Z,98186.84
2023-02-24T19:07:48.976Z,98170.25
2023-02-24T19:10:18.500Z,98174.63
2023-02-24T19:12:48.517Z,98179.16
2023-02-24T19:15:17.887Z,98178.47
2023-02-24T19:17:47.836Z,98174.94
2023-02-24T19:20:16.737Z,98174.09
2023-02-24T19:22:45.345Z,98185.50
2023-02-24T19:25:13.814Z,98186.50
2023-02-24T19:27:42.238Z,98199.56
2023-02-24T19:30:12.369Z,98197.81
2023-02-24T19:32:41.058Z,98187.34
2023-02-24T19:35:11.040Z,98183.00
2023-02-24T19:37:39.553Z,98182.06
2023-02-24T19:40:08.964Z,98175.97
2023-02-24T19:42:37.480Z,98168.91
2023-02-24T19:45:06.721Z,98172.50
2023-02-24T19:47:35.649Z,98172.69
2023-02-24T19:50:04.109Z,98162.38
2023-02-24T19:52:34.748Z,98153.72
2023-02-24T19:55:03.357Z,98152.56
2023-02-24T19:57:32.397Z,98138.56
2023-02-24T20:00:00.861Z,98138.41
2023-02-24T20:02:29.523Z,98141.91
2023-02-24T20:04:58.070Z,98143.78
2023-02-24T20:07:26.762Z,98145.44
2023-02-24T20:09:56.497Z,98136.63
2023-02-24T20:12:25.681Z,98137.50
2023-02-24T20:14:54.214Z,98136.72
2023-02-24T20:17:23.023Z,98129.84
2023-02-24T20:19:51.794Z,98135.97
2023-02-24T20:22:20.400Z,98132.44
2023-02-24T20:24:48.985Z,98120.38
2023-02-24T20:27:19.144Z,98117.78
2023-02-24T20:29:48.320Z,98114.25
2023-02-24T20:32:17.069Z,98107.41
2023-02-24T20:34:46.565Z,98108.41
2023-02-24T20:37:15.654Z,98103.38
2023-02-24T20:39:44.655Z,98099.19
2023-02-24T20:42:13.714Z,98104.38
2023-02-24T20:44:44.395Z,98106.22
2023-02-24T20:47:14.158Z,98104.38
2023-02-24T20:49:42.615Z,98097.34
2023-02-24T20:52:11.308Z,98082.66
2023-02-24T20:54:39.750Z,98077.47
2023-02-24T20:57:09.137Z,98077.47
2023-02-24T20:59:41.596Z,98061.22
2023-02-24T21:02:13.709Z,98069.19
2023-02-24T21:04:42.292Z,98073.03
2023-02-24T21:07:11.857Z,98071.44
2023-02-24T21:09:40.344Z,98069.00
2023-02-24T21:12:09.956Z,98058.81
2023-02-24T21:14:38.480Z,98058.97
2023-02-24T21:17:08.330Z,98050.25
2023-02-24T21:19:38.082Z,98050.44
2023-02-24T21:22:07.517Z,98041.72
2023-02-24T21:24:36.339Z,98023.34
2023-02-24T21:27:05.134Z,98021.75
2023-02-24T21:29:33.627Z,98012.56
2023-02-24T21:32:03.423Z,98019.00
2023-02-24T21:34:32.056Z,98015.72
2023-02-24T21:37:02.474Z,98012.56
2023-02-24T21:39:31.701Z,98008.78
2023-02-24T21:42:00.192Z,98019.25
2023-02-24T21:44:29.290Z,98013.38
2023-02-24T21:46:57.726Z,98018.56
2023-02-24T21:49:26.588Z,97999.47
2023-02-24T21:51:55.309Z,97999.47
2023-02-24T21:54:26.655Z,98007.19
2023-02-24T21:56:55.004Z,98001.16
2023-02-24T21:59:23.855Z,98012.38
2023-02-24T22:01:54.404Z,98019.16
2023-02-24T22:04:23.504Z,97992.94
2023-02-24T22:06:52.555Z,97975.34
2023-02-24T22:09:20.973Z,97983.91
2023-02-24T22:11:51.329Z,97983.06
2023-02-24T22:14:20.559Z,97989.94
2023-02-24T22:16:49.016Z,97975.19
2023-02-24T22:19:19.225Z,97980.25
2023-02-24T22:21:47.990Z,97982.06
2023-02-24T22:24:18.986Z,97978.88
2023-02-24T22:26:47.893Z,97980.75
2023-02-24T22:29:17.769Z,97972.75
2023-02-24T22:31:49.866Z,97972.84
2023-02-24T22:34:18.544Z,97948.59
2023-02-24T22:36:47.127Z,97950.25
2023-02-24T22:39:17.190Z,97942.53
2023-02-24T22:41:47.665Z,97931.31
2023-02-24T22:44:19.529Z,97935.69
2023-02-24T22:46:49.398Z,97930.56
2023-02-24T22:49:18.603Z,97940.09
2023-02-24T22:51:47.000Z,97932.25
2023-02-24T22:54:15.521Z,97922.88
2023-02-24T22:56:44.090Z,97910.53
2023-02-24T22:59:12.914Z,97911.31
2023-02-24T23:01:43.834Z,97897.31
2023-02-24T23:04:17.232Z,97900.66
2023-02-24T23:06:47.680Z,97883.41
2023-02-24T23:09:20.116Z,97885.09
2023-02-24T23:11:49.562Z,97871.38
2023-02-24T23:14:19.051Z,97867.84
2023-02-24T23:16:55.675Z,97848.75
2023-02-24T23:19:24.761Z,97827.06
2023-02-24T23:21:56.573Z,97837.19
2023-02-24T23:24:25.817Z,97838.75
2023-02-24T23:26:57.784Z,97841.34
2023-02-24T23:29:27.750Z,97846.53
2023-02-24T23:31:58.130Z,97841.34
2023-02-24T23:34:26.916Z,97842.38
2023-02-24T23:36:55.747Z,97834.66
2023-02-24T23:39:25.004Z,97834.66
2023-02-24T23:41:56.848Z,97828.81
2023-02-24T23:44:26.521Z,97827.25
2023-02-24T23:46:58.697Z,97825.44
2023-02-24T23:49:39.106Z,97829.84
2023-02-24T23:52:12.862Z,97826.47
2023-02-24T23:54:41.308Z,97824.81
2023-02-24T23:57:09.926Z,97824.81
2023-02-24T23:59:39.454Z,97816.28
